sensor_id;sensor_type;location;lat;lon;timestamp;P1;durP1;ratioP1;P2;durP2;ratioP2
19595;SDS011;9945;46.010;8.946;2023-03-25T00:02:19;31.85;;;28.85;;
19595;SDS011;9945;46.010;8.946;2023-03-25T00:04:48;29.98;;;27.17;;
19595;SDS011;9945;46.010;8.946;2023-03-25T00:07:16;31.63;;;28.63;;
19595;SDS011;9945;46.010;8.946;2023-03-25T00:09:45;32.20;;;29.10;;
19595;SDS011;9945;46.010;8.946;2023-03-25T00:12:13;32.30;;;29.40;;
19595;SDS011;9945;46.010;8.946;2023-03-25T00:14:41;31.42;;;28.42;;
19595;SDS011;9945;46.010;8.946;2023-03-25T00:17:18;32.05;;;28.95;;
19595;SDS011;9945;46.010;8.946;2023-03-25T00:19:46;31.33;;;28.13;;
19595;SDS011;9945;46.010;8.946;2023-03-25T00:22:14;28.75;;;26.08;;
19595;SDS011;9945;46.010;8.946;2023-03-25T00:24:42;31.42;;;28.42;;
19595;SDS011;9945;46.010;8.946;2023-03-25T00:27:10;30.70;;;27.83;;
19595;SDS011;9945;46.010;8.946;2023-03-25T00:29:38;31.42;;;28.13;;
19595;SDS011;9945;46.010;8.946;2023-03-25T00:32:06;30.10;;;27.30;;
19595;SDS011;9945;46.010;8.946;2023-03-25T00:34:33;30.83;;;27.88;;
19595;SDS011;9945;46.010;8.946;2023-03-25T00:37:06;29.90;;;26.90;;
19595;SDS011;9945;46.010;8.946;2023-03-25T00:39:34;29.42;;;26.52;;
19595;SDS011;9945;46.010;8.946;2023-03-25T00:42:01;28.75;;;26.05;;
19595;SDS011;9945;46.010;8.946;2023-03-25T00:44:30;29.88;;;27.05;;
19595;SDS011;9945;46.010;8.946;2023-03-25T00:46:57;27.65;;;24.75;;
19595;SDS011;9945;46.010;8.946;2023-03-25T00:49:24;29.08;;;26.33;;
19595;SDS011;9945;46.010;8.946;2023-03-25T00:51:53;31.10;;;28.20;;
19595;SDS011;9945;46.010;8.946;2023-03-25T00:54:20;30.10;;;27.27;;
19595;SDS011;9945;46.010;8.946;2023-03-25T00:56:47;30.63;;;26.77;;
19595;SDS011;9945;46.010;8.946;2023-03-25T00:59:14;30.42;;;27.73;;
19595;SDS011;9945;46.010;8.946;2023-03-25T01:01:42;31.35;;;28.33;;
19595;SDS011;9945;46.010;8.946;2023-03-25T01:04:10;30.75;;;28.05;;
19595;SDS011;9945;46.010;8.946;2023-03-25T01:06:38;32.13;;;28.90;;
19595;SDS011;9945;46.010;8.946;2023-03-25T01:09:08;31.52;;;28.63;;
19595;SDS011;9945;46.010;8.946;2023-03-25T01:11:38;30.98;;;28.02;;
19595;SDS011;9945;46.010;8.946;2023-03-25T01:14:07;32.33;;;29.05;;
19595;SDS011;9945;46.010;8.946;2023-03-25T01:16:37;30.25;;;27.45;;
19595;SDS011;9945;46.010;8.946;2023-03-25T01:19:06;30.88;;;28.13;;
19595;SDS011;9945;46.010;8.946;2023-03-25T01:21:33;31.42;;;28.25;;
19595;SDS011;9945;46.010;8.946;2023-03-25T01:24:00;30.45;;;27.65;;
19595;SDS011;9945;46.010;8.946;2023-03-25T01:26:27;29.08;;;26.38;;
19595;SDS011;9945;46.010;8.946;2023-03-25T01:28:54;30.58;;;27.67;;
19595;SDS011;9945;46.010;8.946;2023-03-25T01:31:21;29.35;;;26.67;;
19595;SDS011;9945;46.010;8.946;2023-03-25T01:33:50;28.55;;;25.85;;
19595;SDS011;9945;46.010;8.946;2023-03-25T01:36:18;26.98;;;24.48;;
19595;SDS011;9945;46.010;8.946;2023-03-25T01:38:45;27.42;;;24.77;;
19595;SDS011;9945;46.010;8.946;2023-03-25T01:41:14;25.80;;;23.33;;
19595;SDS011;9945;46.010;8.946;2023-03-25T01:43:58;25.85;;;23.42;;
19595;SDS011;9945;46.010;8.946;2023-03-25T01:46:26;25.77;;;23.50;;
19595;SDS011;9945;46.010;8.946;2023-03-25T01:48:53;26.65;;;24.25;;
19595;SDS011;9945;46.010;8.946;2023-03-25T01:51:23;28.15;;;25.58;;
19595;SDS011;9945;46.010;8.946;2023-03-25T01:53:53;26.65;;;24.13;;
19595;SDS011;9945;46.010;8.946;2023-03-25T01:56:21;31.73;;;28.77;;
19595;SDS011;9945;46.010;8.946;2023-03-25T01:58:54;30.17;;;27.40;;
19595;SDS011;9945;46.010;8.946;2023-03-25T02:01:24;34.00;;;30.63;;
19595;SDS011;9945;46.010;8.946;2023-03-25T02:03:51;30.27;;;27.30;;
19595;SDS011;9945;46.010;8.946;2023-03-25T02:06:29;26.77;;;24.40;;
19595;SDS011;9945;46.010;8.946;2023-03-25T02:09:03;25.75;;;23.38;;
19595;SDS011;9945;46.010;8.946;2023-03-25T02:11:33;26.33;;;23.98;;
19595;SDS011;9945;46.010;8.946;2023-03-25T02:14:02;23.38;;;21.27;;
19595;SDS011;9945;46.010;8.946;2023-03-25T02:16:32;23.55;;;21.45;;
19595;SDS011;9945;46.010;8.946;2023-03-25T02:19:17;23.35;;;21.25;;
19595;SDS011;9945;46.010;8.946;2023-03-25T02:22:20;22.92;;;20.80;;
19595;SDS011;9945;46.010;8.946;2023-03-25T02:25:22;22.60;;;20.63;;
19595;SDS011;9945;46.010;8.946;2023-03-25T02:28:13;22.63;;;20.63;;
19595;SDS011;9945;46.010;8.946;2023-03-25T02:34:00;22.83;;;20.70;;
19595;SDS011;9945;46.010;8.946;2023-03-25T02:39:37;27.83;;;25.23;;
19595;SDS011;9945;46.010;8.946;2023-03-25T02:42:11;29.38;;;26.58;;
19595;SDS011;9945;46.010;8.946;2023-03-25T02:44:45;27.90;;;25.27;;
19595;SDS011;9945;46.010;8.946;2023-03-25T02:47:18;26.95;;;24.33;;
19595;SDS011;9945;46.010;8.946;2023-03-25T02:49:48;28.43;;;25.67;;
19595;SDS011;9945;46.010;8.946;2023-03-25T02:52:20;29.23;;;26.43;;
19595;SDS011;9945;46.010;8.946;2023-03-25T02:54:52;29.10;;;26.23;;
19595;SDS011;9945;46.010;8.946;2023-03-25T02:57:22;28.92;;;26.27;;
19595;SDS011;9945;46.010;8.946;2023-03-25T02:59:53;28.85;;;26.15;;
19595;SDS011;9945;46.010;8.946;2023-03-25T03:02:22;31.73;;;28.55;;
19595;SDS011;9945;46.010;8.946;2023-03-25T03:04:53;31.80;;;28.40;;
19595;SDS011;9945;46.010;8.946;2023-03-25T03:07:22;29.42;;;26.58;;
19595;SDS011;9945;46.010;8.946;2023-03-25T03:09:54;26.00;;;23.58;;
19595;SDS011;9945;46.010;8.946;2023-03-25T03:12:43;24.35;;;21.90;;
19595;SDS011;9945;46.010;8.946;2023-03-25T03:15:20;23.77;;;21.55;;
19595;SDS011;9945;46.010;8.946;2023-03-25T03:17:57;21.55;;;19.60;;
19595;SDS011;9945;46.010;8.946;2023-03-25T03:20:35;22.98;;;20.88;;
19595;SDS011;9945;46.010;8.946;2023-03-25T03:23:07;23.83;;;21.65;;
19595;SDS011;9945;46.010;8.946;2023-03-25T03:25:41;24.33;;;22.02;;
19595;SDS011;9945;46.010;8.946;2023-03-25T03:28:15;24.65;;;22.42;;
19595;SDS011;9945;46.010;8.946;2023-03-25T03:30:50;25.83;;;23.33;;
19595;SDS011;9945;46.010;8.946;2023-03-25T03:33:24;27.65;;;24.92;;
19595;SDS011;9945;46.010;8.946;2023-03-25T03:35:56;30.27;;;27.17;;
19595;SDS011;9945;46.010;8.946;2023-03-25T03:38:27;30.40;;;27.40;;
19595;SDS011;9945;46.010;8.946;2023-03-25T03:41:03;31.02;;;27.92;;
19595;SDS011;9945;46.010;8.946;2023-03-25T03:43:33;31.63;;;28.52;;
19595;SDS011;9945;46.010;8.946;2023-03-25T03:46:07;32.67;;;29.45;;
19595;SDS011;9945;46.010;8.946;2023-03-25T03:48:40;29.48;;;26.35;;
19595;SDS011;9945;46.010;8.946;2023-03-25T03:51:10;32.47;;;29.27;;
19595;SDS011;9945;46.010;8.946;2023-03-25T03:53:44;32.70;;;29.50;;
19595;SDS011;9945;46.010;8.946;2023-03-25T03:56:18;32.83;;;29.45;;
19595;SDS011;9945;46.010;8.946;2023-03-25T03:58:50;32.67;;;29.15;;
19595;SDS011;9945;46.010;8.946;2023-03-25T04:01:24;34.90;;;31.27;;
19595;SDS011;9945;46.010;8.946;2023-03-25T04:03:59;34.27;;;30.67;;
19595;SDS011;9945;46.010;8.946;2023-03-25T04:06:29;33.25;;;29.85;;
19595;SDS011;9945;46.010;8.946;2023-03-25T04:09:04;34.08;;;30.58;;
19595;SDS011;9945;46.010;8.946;2023-03-25T04:11:45;33.20;;;29.90;;
19595;SDS011;9945;46.010;8.946;2023-03-25T04:14:15;34.10;;;30.45;;
19595;SDS011;9945;46.010;8.946;2023-03-25T04:16:42;33.47;;;29.83;;
19595;SDS011;9945;46.010;8.946;2023-03-25T04:19:10;32.47;;;29.10;;
19595;SDS011;9945;46.010;8.946;2023-03-25T04:21:42;30.98;;;27.70;;
19595;SDS011;9945;46.010;8.946;2023-03-25T04:24:09;31.43;;;28.40;;
19595;SDS011;9945;46.010;8.946;2023-03-25T04:26:36;31.55;;;28.25;;
19595;SDS011;9945;46.010;8.946;2023-03-25T04:29:04;30.63;;;27.43;;
19595;SDS011;9945;46.010;8.946;2023-03-25T04:31:32;32.03;;;27.40;;
19595;SDS011;9945;46.010;8.946;2023-03-25T04:33:59;33.17;;;28.30;;
19595;SDS011;9945;46.010;8.946;2023-03-25T04:36:27;31.85;;;28.55;;
19595;SDS011;9945;46.010;8.946;2023-03-25T04:38:57;32.37;;;29.03;;
19595;SDS011;9945;46.010;8.946;2023-03-25T04:41:25;35.55;;;30.70;;
19595;SDS011;9945;46.010;8.946;2023-03-25T04:43:52;34.50;;;30.88;;
19595;SDS011;9945;46.010;8.946;2023-03-25T04:46:20;35.83;;;31.98;;
19595;SDS011;9945;46.010;8.946;2023-03-25T04:48:47;35.83;;;31.10;;
19595;SDS011;9945;46.010;8.946;2023-03-25T04:51:14;33.45;;;29.85;;
19595;SDS011;9945;46.010;8.946;2023-03-25T04:53:41;28.80;;;25.70;;
19595;SDS011;9945;46.010;8.946;2023-03-25T04:56:11;25.37;;;23.00;;
19595;SDS011;9945;46.010;8.946;2023-03-25T04:58:41;29.80;;;26.83;;
19595;SDS011;9945;46.010;8.946;2023-03-25T05:01:08;29.20;;;26.27;;
19595;SDS011;9945;46.010;8.946;2023-03-25T05:03:47;28.93;;;25.90;;
19595;SDS011;9945;46.010;8.946;2023-03-25T05:06:15;29.10;;;26.10;;
19595;SDS011;9945;46.010;8.946;2023-03-25T05:08:42;30.03;;;26.87;;
19595;SDS011;9945;46.010;8.946;2023-03-25T05:11:08;27.00;;;24.30;;
19595;SDS011;9945;46.010;8.946;2023-03-25T05:13:35;27.98;;;25.33;;
19595;SDS011;9945;46.010;8.946;2023-03-25T05:16:02;27.80;;;25.00;;
19595;SDS011;9945;46.010;8.946;2023-03-25T05:18:29;27.67;;;24.83;;
19595;SDS011;9945;46.010;8.946;2023-03-25T05:20:58;27.35;;;24.45;;
19595;SDS011;9945;46.010;8.946;2023-03-25T05:23:27;30.17;;;26.88;;
19595;SDS011;9945;46.010;8.946;2023-03-25T05:25:55;32.38;;;29.02;;
19595;SDS011;9945;46.010;8.946;2023-03-25T05:28:22;32.17;;;28.67;;
19595;SDS011;9945;46.010;8.946;2023-03-25T05:30:49;32.28;;;28.90;;
19595;SDS011;9945;46.010;8.946;2023-03-25T05:33:16;32.40;;;29.00;;
19595;SDS011;9945;46.010;8.946;2023-03-25T05:35:44;30.70;;;27.40;;
19595;SDS011;9945;46.010;8.946;2023-03-25T05:38:12;32.55;;;29.05;;
19595;SDS011;9945;46.010;8.946;2023-03-25T05:40:42;32.47;;;28.90;;
19595;SDS011;9945;46.010;8.946;2023-03-25T05:43:10;30.83;;;27.88;;
19595;SDS011;9945;46.010;8.946;2023-03-25T05:45:39;31.33;;;28.13;;
19595;SDS011;9945;46.010;8.946;2023-03-25T05:48:05;31.33;;;28.00;;
19595;SDS011;9945;46.010;8.946;2023-03-25T05:50:32;29.25;;;26.25;;
19595;SDS011;9945;46.010;8.946;2023-03-25T05:53:00;28.13;;;25.23;;
19595;SDS011;9945;46.010;8.946;2023-03-25T05:55:28;27.90;;;25.10;;
19595;SDS011;9945;46.010;8.946;2023-03-25T05:57:55;32.60;;;29.03;;
19595;SDS011;9945;46.010;8.946;2023-03-25T06:00:22;32.15;;;28.50;;
19595;SDS011;9945;46.010;8.946;2023-03-25T06:02:49;30.80;;;27.17;;
19595;SDS011;9945;46.010;8.946;2023-03-25T06:05:16;29.55;;;26.23;;
19595;SDS011;9945;46.010;8.946;2023-03-25T06:07:47;27.73;;;24.85;;
19595;SDS011;9945;46.010;8.946;2023-03-25T06:10:15;26.10;;;23.37;;
19595;SDS011;9945;46.010;8.946;2023-03-25T06:12:44;27.05;;;24.20;;
19595;SDS011;9945;46.010;8.946;2023-03-25T06:15:13;24.95;;;22.35;;
19595;SDS011;9945;46.010;8.946;2023-03-25T06:17:42;24.90;;;22.50;;
19595;SDS011;9945;46.010;8.946;2023-03-25T06:20:11;27.83;;;24.77;;
19595;SDS011;9945;46.010;8.946;2023-03-25T06:22:41;25.35;;;22.83;;
19595;SDS011;9945;46.010;8.946;2023-03-25T06:25:09;27.80;;;24.57;;
19595;SDS011;9945;46.010;8.946;2023-03-25T06:27:41;26.52;;;23.80;;
19595;SDS011;9945;46.010;8.946;2023-03-25T06:30:10;24.48;;;21.95;;
19595;SDS011;9945;46.010;8.946;2023-03-25T06:32:39;23.63;;;21.15;;
19595;SDS011;9945;46.010;8.946;2023-03-25T06:35:07;25.13;;;21.58;;
19595;SDS011;9945;46.010;8.946;2023-03-25T06:37:35;23.45;;;21.05;;
19595;SDS011;9945;46.010;8.946;2023-03-25T06:40:04;21.83;;;19.73;;
19595;SDS011;9945;46.010;8.946;2023-03-25T06:42:32;21.23;;;19.02;;
19595;SDS011;9945;46.010;8.946;2023-03-25T06:44:59;20.45;;;18.55;;
19595;SDS011;9945;46.010;8.946;2023-03-25T06:47:30;20.38;;;18.48;;
19595;SDS011;9945;46.010;8.946;2023-03-25T06:49:57;20.45;;;18.35;;
19595;SDS011;9945;46.010;8.946;2023-03-25T06:52:24;20.48;;;18.55;;
19595;SDS011;9945;46.010;8.946;2023-03-25T06:54:51;19.02;;;17.23;;
19595;SDS011;9945;46.010;8.946;2023-03-25T06:57:17;19.73;;;17.65;;
19595;SDS011;9945;46.010;8.946;2023-03-25T06:59:44;20.42;;;15.57;;
19595;SDS011;9945;46.010;8.946;2023-03-25T07:02:13;18.38;;;16.70;;
19595;SDS011;9945;46.010;8.946;2023-03-25T07:04:42;17.42;;;15.73;;
19595;SDS011;9945;46.010;8.946;2023-03-25T07:07:09;18.02;;;15.88;;
19595;SDS011;9945;46.010;8.946;2023-03-25T07:09:35;17.40;;;15.75;;
19595;SDS011;9945;46.010;8.946;2023-03-25T07:12:02;16.58;;;14.95;;
19595;SDS011;9945;46.010;8.946;2023-03-25T07:14:30;17.95;;;16.40;;
19595;SDS011;9945;46.010;8.946;2023-03-25T07:16:56;17.63;;;15.82;;
19595;SDS011;9945;46.010;8.946;2023-03-25T07:19:24;17.55;;;16.05;;
19595;SDS011;9945;46.010;8.946;2023-03-25T07:21:52;12.38;;;11.18;;
19595;SDS011;9945;46.010;8.946;2023-03-25T07:24:19;12.38;;;11.13;;
19595;SDS011;9945;46.010;8.946;2023-03-25T07:26:46;11.10;;;10.00;;
19595;SDS011;9945;46.010;8.946;2023-03-25T07:29:12;10.27;;;9.52;;
19595;SDS011;9945;46.010;8.946;2023-03-25T07:31:42;11.05;;;10.15;;
19595;SDS011;9945;46.010;8.946;2023-03-25T07:34:10;12.73;;;11.48;;
19595;SDS011;9945;46.010;8.946;2023-03-25T07:36:37;14.55;;;13.15;;
19595;SDS011;9945;46.010;8.946;2023-03-25T07:39:05;12.75;;;11.57;;
19595;SDS011;9945;46.010;8.946;2023-03-25T07:41:32;10.68;;;9.82;;
19595;SDS011;9945;46.010;8.946;2023-03-25T07:43:59;10.60;;;9.43;;
19595;SDS011;9945;46.010;8.946;2023-03-25T07:46:26;10.88;;;9.73;;
19595;SDS011;9945;46.010;8.946;2023-03-25T07:48:53;10.88;;;10.07;;
19595;SDS011;9945;46.010;8.946;2023-03-25T07:51:20;11.70;;;10.57;;
19595;SDS011;9945;46.010;8.946;2023-03-25T07:53:47;10.70;;;9.75;;
19595;SDS011;9945;46.010;8.946;2023-03-25T07:56:15;10.55;;;9.65;;
19595;SDS011;9945;46.010;8.946;2023-03-25T07:58:42;9.77;;;8.82;;
19595;SDS011;9945;46.010;8.946;2023-03-25T08:01:09;10.10;;;9.30;;
19595;SDS011;9945;46.010;8.946;2023-03-25T08:03:36;9.98;;;9.02;;
19595;SDS011;9945;46.010;8.946;2023-03-25T08:06:04;10.60;;;9.23;;
19595;SDS011;9945;46.010;8.946;2023-03-25T08:08:32;10.13;;;9.32;;
19595;SDS011;9945;46.010;8.946;2023-03-25T08:10:58;9.90;;;9.10;;
19595;SDS011;9945;46.010;8.946;2023-03-25T08:13:28;8.00;;;7.40;;
19595;SDS011;9945;46.010;8.946;2023-03-25T08:15:55;7.63;;;7.03;;
19595;SDS011;9945;46.010;8.946;2023-03-25T08:18:23;6.63;;;6.20;;
19595;SDS011;9945;46.010;8.946;2023-03-25T08:20:49;6.30;;;5.80;;
19595;SDS011;9945;46.010;8.946;2023-03-25T08:23:16;5.20;;;4.88;;
19595;SDS011;9945;46.010;8.946;2023-03-25T08:25:44;5.38;;;4.97;;
19595;SDS011;9945;46.010;8.946;2023-03-25T08:28:13;5.47;;;4.80;;
19595;SDS011;9945;46.010;8.946;2023-03-25T08:30:43;4.53;;;4.22;;
19595;SDS011;9945;46.010;8.946;2023-03-25T08:33:10;5.40;;;4.90;;
19595;SDS011;9945;46.010;8.946;2023-03-25T08:35:37;8.50;;;7.80;;
19595;SDS011;9945;46.010;8.946;2023-03-25T08:38:04;8.88;;;8.20;;
19595;SDS011;9945;46.010;8.946;2023-03-25T08:40:31;9.80;;;8.85;;
19595;SDS011;9945;46.010;8.946;2023-03-25T08:42:58;10.40;;;9.32;;
19595;SDS011;9945;46.010;8.946;2023-03-25T08:45:25;7.95;;;7.32;;
19595;SDS011;9945;46.010;8.946;2023-03-25T08:47:53;8.05;;;7.45;;
19595;SDS011;9945;46.010;8.946;2023-03-25T08:50:20;6.88;;;6.38;;
19595;SDS011;9945;46.010;8.946;2023-03-25T08:52:47;7.00;;;6.50;;
19595;SDS011;9945;46.010;8.946;2023-03-25T08:55:17;5.45;;;3.45;;
19595;SDS011;9945;46.010;8.946;2023-03-25T08:57:44;2.80;;;2.70;;
19595;SDS011;9945;46.010;8.946;2023-03-25T09:00:11;2.80;;;2.70;;
19595;SDS011;9945;46.010;8.946;2023-03-25T09:02:39;3.03;;;2.83;;
19595;SDS011;9945;46.010;8.946;2023-03-25T09:05:09;2.53;;;2.42;;
19595;SDS011;9945;46.010;8.946;2023-03-25T09:07:37;2.10;;;2.00;;
19595;SDS011;9945;46.010;8.946;2023-03-25T09:10:05;2.30;;;2.20;;
19595;SDS011;9945;46.010;8.946;2023-03-25T09:12:33;8.98;;;8.27;;
19595;SDS011;9945;46.010;8.946;2023-03-25T09:15:00;8.30;;;7.60;;
19595;SDS011;9945;46.010;8.946;2023-03-25T09:17:27;8.13;;;7.43;;
19595;SDS011;9945;46.010;8.946;2023-03-25T09:26:18;2.15;;;1.90;;
19595;SDS011;9945;46.010;8.946;2023-03-25T09:28:45;2.13;;;1.88;;
19595;SDS011;9945;46.010;8.946;2023-03-25T09:31:12;1.70;;;1.38;;
19595;SDS011;9945;46.010;8.946;2023-03-25T09:33:40;1.25;;;1.25;;
19595;SDS011;9945;46.010;8.946;2023-03-25T09:38:53;1.20;;;1.10;;
19595;SDS011;9945;46.010;8.946;2023-03-25T09:41:25;1.58;;;1.30;;
19595;SDS011;9945;46.010;8.946;2023-03-25T09:44:08;3.80;;;3.50;;
19595;SDS011;9945;46.010;8.946;2023-03-25T09:46:40;3.97;;;3.60;;
19595;SDS011;9945;46.010;8.946;2023-03-25T09:49:09;3.33;;;3.13;;
19595;SDS011;9945;46.010;8.946;2023-03-25T09:51:42;3.22;;;3.03;;
19595;SDS011;9945;46.010;8.946;2023-03-25T09:54:15;4.47;;;2.55;;
19595;SDS011;9945;46.010;8.946;2023-03-25T09:56:46;2.20;;;2.10;;
19595;SDS011;9945;46.010;8.946;2023-03-25T09:59:16;3.17;;;2.97;;
19595;SDS011;9945;46.010;8.946;2023-03-25T10:01:46;3.42;;;2.00;;
19595;SDS011;9945;46.010;8.946;2023-03-25T10:04:34;3.28;;;1.40;;
19595;SDS011;9945;46.010;8.946;2023-03-25T10:07:14;1.08;;;1.05;;
19595;SDS011;9945;46.010;8.946;2023-03-25T10:10:00;2.05;;;1.27;;
19595;SDS011;9945;46.010;8.946;2023-03-25T10:12:40;1.05;;;0.98;;
19595;SDS011;9945;46.010;8.946;2023-03-25T10:15:13;4.47;;;1.25;;
19595;SDS011;9945;46.010;8.946;2023-03-25T10:17:48;2.10;;;1.38;;
19595;SDS011;9945;46.010;8.946;2023-03-25T10:20:30;1.85;;;1.60;;
19595;SDS011;9945;46.010;8.946;2023-03-25T10:23:06;1.20;;;1.20;;
19595;SDS011;9945;46.010;8.946;2023-03-25T10:25:44;1.27;;;1.17;;
19595;SDS011;9945;46.010;8.946;2023-03-25T10:28:14;3.60;;;1.08;;
19595;SDS011;9945;46.010;8.946;2023-03-25T10:30:47;1.25;;;1.15;;
19595;SDS011;9945;46.010;8.946;2023-03-25T10:33:20;1.85;;;1.40;;
19595;SDS011;9945;46.010;8.946;2023-03-25T10:35:54;1.00;;;1.00;;
19595;SDS011;9945;46.010;8.946;2023-03-25T10:38:24;2.70;;;1.15;;
19595;SDS011;9945;46.010;8.946;2023-03-25T10:40:54;1.17;;;1.17;;
19595;SDS011;9945;46.010;8.946;2023-03-25T10:43:31;2.70;;;1.05;;
19595;SDS011;9945;46.010;8.946;2023-03-25T10:46:11;1.60;;;1.50;;
19595;SDS011;9945;46.010;8.946;2023-03-25T10:48:42;1.35;;;1.30;;
19595;SDS011;9945;46.010;8.946;2023-03-25T10:51:12;1.23;;;1.10;;
19595;SDS011;9945;46.010;8.946;2023-03-25T10:53:41;1.00;;;1.00;;
19595;SDS011;9945;46.010;8.946;2023-03-25T10:56:12;1.05;;;1.05;;
19595;SDS011;9945;46.010;8.946;2023-03-25T10:58:42;0.95;;;0.95;;
19595;SDS011;9945;46.010;8.946;2023-03-25T11:01:14;1.40;;;1.02;;
19595;SDS011;9945;46.010;8.946;2023-03-25T11:03:43;1.00;;;0.88;;
19595;SDS011;9945;46.010;8.946;2023-03-25T11:06:17;0.73;;;0.73;;
19595;SDS011;9945;46.010;8.946;2023-03-25T11:11:50;0.90;;;0.90;;
19595;SDS011;9945;46.010;8.946;2023-03-25T11:14:20;0.90;;;0.90;;
19595;SDS011;9945;46.010;8.946;2023-03-25T11:16:50;1.55;;;1.00;;
19595;SDS011;9945;46.010;8.946;2023-03-25T11:19:23;0.90;;;0.90;;
19595;SDS011;9945;46.010;8.946;2023-03-25T11:21:52;0.80;;;0.60;;
19595;SDS011;9945;46.010;8.946;2023-03-25T11:24:22;1.27;;;1.27;;
19595;SDS011;9945;46.010;8.946;2023-03-25T11:26:56;0.80;;;0.80;;
19595;SDS011;9945;46.010;8.946;2023-03-25T11:29:24;0.70;;;0.70;;
19595;SDS011;9945;46.010;8.946;2023-03-25T11:31:57;1.10;;;0.75;;
19595;SDS011;9945;46.010;8.946;2023-03-25T11:34:30;0.77;;;0.77;;
19595;SDS011;9945;46.010;8.946;2023-03-25T11:36:58;0.68;;;0.68;;
19595;SDS011;9945;46.010;8.946;2023-03-25T11:39:30;0.73;;;0.73;;
19595;SDS011;9945;46.010;8.946;2023-03-25T11:42:08;0.65;;;0.65;;
19595;SDS011;9945;46.010;8.946;2023-03-25T11:44:39;0.55;;;0.55;;
19595;SDS011;9945;46.010;8.946;2023-03-25T11:47:08;0.63;;;0.60;;
19595;SDS011;9945;46.010;8.946;2023-03-25T11:49:37;0.70;;;0.70;;
19595;SDS011;9945;46.010;8.946;2023-03-25T11:52:06;0.80;;;0.80;;
19595;SDS011;9945;46.010;8.946;2023-03-25T11:54:35;1.20;;;1.20;;
19595;SDS011;9945;46.010;8.946;2023-03-25T11:57:03;1.40;;;1.40;;
19595;SDS011;9945;46.010;8.946;2023-03-25T11:59:38;0.60;;;0.60;;
19595;SDS011;9945;46.010;8.946;2023-03-25T12:02:15;0.55;;;0.55;;
19595;SDS011;9945;46.010;8.946;2023-03-25T12:04:54;0.60;;;0.60;;
19595;SDS011;9945;46.010;8.946;2023-03-25T12:07:23;0.70;;;0.70;;
19595;SDS011;9945;46.010;8.946;2023-03-25T12:09:53;0.80;;;0.80;;
19595;SDS011;9945;46.010;8.946;2023-03-25T12:12:27;0.90;;;0.90;;
19595;SDS011;9945;46.010;8.946;2023-03-25T12:15:05;1.80;;;1.70;;
19595;SDS011;9945;46.010;8.946;2023-03-25T12:17:44;0.65;;;0.65;;
19595;SDS011;9945;46.010;8.946;2023-03-25T12:20:23;0.82;;;0.82;;
19595;SDS011;9945;46.010;8.946;2023-03-25T12:22:59;0.70;;;0.70;;
19595;SDS011;9945;46.010;8.946;2023-03-25T12:25:31;0.63;;;0.63;;
19595;SDS011;9945;46.010;8.946;2023-03-25T12:28:13;0.75;;;0.75;;
19595;SDS011;9945;46.010;8.946;2023-03-25T12:30:58;0.60;;;0.60;;
19595;SDS011;9945;46.010;8.946;2023-03-25T12:33:41;0.77;;;0.77;;
19595;SDS011;9945;46.010;8.946;2023-03-25T12:39:11;0.70;;;0.70;;
19595;SDS011;9945;46.010;8.946;2023-03-25T12:41:52;0.70;;;0.70;;
19595;SDS011;9945;46.010;8.946;2023-03-25T12:44:33;0.80;;;0.80;;
19595;SDS011;9945;46.010;8.946;2023-03-25T12:47:17;0.70;;;0.70;;
19595;SDS011;9945;46.010;8.946;2023-03-25T12:49:54;0.70;;;0.70;;
19595;SDS011;9945;46.010;8.946;2023-03-25T12:52:29;0.65;;;0.65;;
19595;SDS011;9945;46.010;8.946;2023-03-25T12:55:05;0.85;;;0.85;;
19595;SDS011;9945;46.010;8.946;2023-03-25T12:57:50;0.73;;;0.73;;
19595;SDS011;9945;46.010;8.946;2023-03-25T13:00:37;0.73;;;0.73;;
19595;SDS011;9945;46.010;8.946;2023-03-25T13:03:22;0.80;;;0.80;;
19595;SDS011;9945;46.010;8.946;2023-03-25T13:06:06;0.68;;;0.68;;
19595;SDS011;9945;46.010;8.946;2023-03-25T13:08:44;4.13;;;0.70;;
19595;SDS011;9945;46.010;8.946;2023-03-25T13:11:16;0.60;;;0.60;;
19595;SDS011;9945;46.010;8.946;2023-03-25T13:13:47;0.52;;;0.52;;
19595;SDS011;9945;46.010;8.946;2023-03-25T13:16:18;0.57;;;0.57;;
19595;SDS011;9945;46.010;8.946;2023-03-25T13:18:51;0.55;;;0.55;;
19595;SDS011;9945;46.010;8.946;2023-03-25T13:21:21;0.60;;;0.60;;
19595;SDS011;9945;46.010;8.946;2023-03-25T13:23:54;0.63;;;0.63;;
19595;SDS011;9945;46.010;8.946;2023-03-25T13:26:25;0.77;;;0.50;;
19595;SDS011;9945;46.010;8.946;2023-03-25T13:28:56;0.50;;;0.50;;
19595;SDS011;9945;46.010;8.946;2023-03-25T13:31:29;0.50;;;0.50;;
19595;SDS011;9945;46.010;8.946;2023-03-25T13:34:04;0.40;;;0.40;;
19595;SDS011;9945;46.010;8.946;2023-03-25T13:36:40;0.90;;;0.40;;
19595;SDS011;9945;46.010;8.946;2023-03-25T13:39:11;0.43;;;0.43;;
19595;SDS011;9945;46.010;8.946;2023-03-25T13:41:43;0.40;;;0.40;;
19595;SDS011;9945;46.010;8.946;2023-03-25T13:44:15;0.30;;;0.30;;
19595;SDS011;9945;46.010;8.946;2023-03-25T13:46:46;0.38;;;0.38;;
19595;SDS011;9945;46.010;8.946;2023-03-25T13:49:19;0.52;;;0.40;;
19595;SDS011;9945;46.010;8.946;2023-03-25T13:51:51;0.40;;;0.40;;
19595;SDS011;9945;46.010;8.946;2023-03-25T13:54:19;0.30;;;0.30;;
19595;SDS011;9945;46.010;8.946;2023-03-25T13:57:08;0.40;;;0.40;;
19595;SDS011;9945;46.010;8.946;2023-03-25T13:59:53;0.60;;;0.60;;
19595;SDS011;9945;46.010;8.946;2023-03-25T14:02:33;0.43;;;0.43;;
19595;SDS011;9945;46.010;8.946;2023-03-25T14:08:26;0.30;;;0.30;;
19595;SDS011;9945;46.010;8.946;2023-03-25T14:11:17;0.40;;;0.40;;
19595;SDS011;9945;46.010;8.946;2023-03-25T14:13:50;0.30;;;0.30;;
19595;SDS011;9945;46.010;8.946;2023-03-25T14:16:20;0.28;;;0.28;;
19595;SDS011;9945;46.010;8.946;2023-03-25T14:18:52;0.30;;;0.30;;
19595;SDS011;9945;46.010;8.946;2023-03-25T14:21:30;0.40;;;0.40;;
19595;SDS011;9945;46.010;8.946;2023-03-25T14:24:08;0.20;;;0.20;;
19595;SDS011;9945;46.010;8.946;2023-03-25T14:26:40;0.30;;;0.30;;
19595;SDS011;9945;46.010;8.946;2023-03-25T14:29:13;0.43;;;0.43;;
19595;SDS011;9945;46.010;8.946;2023-03-25T14:32:01;0.45;;;0.30;;
19595;SDS011;9945;46.010;8.946;2023-03-25T14:34:31;0.25;;;0.25;;
19595;SDS011;9945;46.010;8.946;2023-03-25T14:40:00;0.45;;;0.30;;
19595;SDS011;9945;46.010;8.946;2023-03-25T14:42:55;0.40;;;0.40;;
19595;SDS011;9945;46.010;8.946;2023-03-25T14:45:37;0.25;;;0.25;;
19595;SDS011;9945;46.010;8.946;2023-03-25T14:48:23;0.30;;;0.28;;
19595;SDS011;9945;46.010;8.946;2023-03-25T14:51:08;0.30;;;0.30;;
19595;SDS011;9945;46.010;8.946;2023-03-25T14:53:39;2.17;;;0.20;;
19595;SDS011;9945;46.010;8.946;2023-03-25T14:56:11;0.35;;;0.35;;
19595;SDS011;9945;46.010;8.946;2023-03-25T14:58:43;0.40;;;0.40;;
19595;SDS011;9945;46.010;8.946;2023-03-25T15:01:16;0.28;;;0.28;;
19595;SDS011;9945;46.010;8.946;2023-03-25T15:03:45;0.30;;;0.30;;
19595;SDS011;9945;46.010;8.946;2023-03-25T15:06:14;0.40;;;0.40;;
19595;SDS011;9945;46.010;8.946;2023-03-25T15:08:49;0.40;;;0.40;;
19595;SDS011;9945;46.010;8.946;2023-03-25T15:11:25;0.30;;;0.30;;
19595;SDS011;9945;46.010;8.946;2023-03-25T15:13:59;0.32;;;0.30;;
19595;SDS011;9945;46.010;8.946;2023-03-25T15:16:30;0.38;;;0.38;;
19595;SDS011;9945;46.010;8.946;2023-03-25T15:19:01;0.32;;;0.30;;
19595;SDS011;9945;46.010;8.946;2023-03-25T15:21:31;0.90;;;0.90;;
19595;SDS011;9945;46.010;8.946;2023-03-25T15:24:20;1.05;;;0.80;;
19595;SDS011;9945;46.010;8.946;2023-03-25T15:26:54;0.30;;;0.30;;
19595;SDS011;9945;46.010;8.946;2023-03-25T15:29:26;0.40;;;0.40;;
19595;SDS011;9945;46.010;8.946;2023-03-25T15:32:02;2.10;;;0.40;;
19595;SDS011;9945;46.010;8.946;2023-03-25T15:37:44;0.20;;;0.20;;
19595;SDS011;9945;46.010;8.946;2023-03-25T15:40:28;0.47;;;0.47;;
19595;SDS011;9945;46.010;8.946;2023-03-25T15:46:26;0.20;;;0.20;;
19595;SDS011;9945;46.010;8.946;2023-03-25T15:52:13;0.30;;;0.30;;